Whitehall, New York
Current Conditions -  °F | °C
As of 2:53 AM on Thursday 18 Dec 2014 (Local Time) from KGFL Reporting Station
Overcast Overcast  
Wind Chill: 25°   Ceiling: 4700
Heat Index: 33°   Visibility: 10mi
Dew Point: 31°   Wind: 10mph
Humidity: 92%   Direction: 200°SSW
Pressure: 29.79"   Gusts: NA
Location:  43.56°N, 73.4°W
Report Text: KGFL 180753Z AUTO 20009KT 10SM FEW005 OVC047 01/M01 A2979 RMK AO2 SNE23 SLP095 P0000 T00061006
Loading
Personal Weather Stations






























Interactive Weather Map New forecast layout! Learn more

10-Day Weather Forecast

Advertisements
Track Severe Weather on mobile